Time;durP1;ratioP1;P1;durP2;ratioP2;P2;SDS_P1;SDS_P2;PMS_P1;PMS_P2;Temp;Humidity;BMP_temperature;BMP_pressure;BME280_temperature;BME280_humidity;BME280_pressure;Samples;Min_cycle;Max_cycle;Signal;HPM_P1;HPM_P2
2021/09/06 00:02:03;;;;;;;9.07;7.70;;;;;;;10.71;100.00;101712.50;4958405;28;20313;-75
2021/09/06 00:04:29;;;;;;;11.13;7.60;;;;;;;10.79;100.00;101710.22;4990983;28;20205;-75
2021/09/06 00:06:55;;;;;;;10.37;8.43;;;;;;;10.84;100.00;101707.59;4953869;28;20226;-76
2021/09/06 00:09:22;;;;;;;10.10;8.40;;;;;;;10.73;100.00;101702.22;4971295;28;20202;-75
2021/09/06 00:11:50;;;;;;;12.43;8.63;;;;;;;10.75;100.00;101700.09;4965094;28;20321;-75
2021/09/06 00:14:16;;;;;;;11.20;8.27;;;;;;;10.84;100.00;101704.88;4955826;28;20190;-75
2021/09/06 00:16:42;;;;;;;12.03;9.00;;;;;;;10.82;100.00;101698.88;4970028;28;20221;-75
2021/09/06 00:19:12;;;;;;;11.03;8.67;;;;;;;10.89;100.00;101694.06;4958878;28;20210;-75
2021/09/06 00:21:42;;;;;;;10.90;8.17;;;;;;;10.86;100.00;101688.28;4944676;28;20229;-76
2021/09/06 00:24:08;;;;;;;12.20;8.50;;;;;;;10.82;100.00;101687.16;4955895;28;20237;-75
2021/09/06 00:26:33;;;;;;;11.13;7.87;;;;;;;10.75;100.00;101686.50;4983643;28;20230;-76
2021/09/06 00:28:59;;;;;;;9.43;7.87;;;;;;;10.73;100.00;101682.38;4958169;28;20208;-76
2021/09/06 00:31:24;;;;;;;10.30;7.33;;;;;;;10.82;100.00;101679.84;4975319;28;20641;-74
2021/09/06 00:33:50;;;;;;;8.40;7.07;;;;;;;10.77;100.00;101681.66;4978512;28;20186;-75
2021/09/06 00:36:16;;;;;;;14.00;8.67;;;;;;;10.67;100.00;101684.19;4958765;28;20259;-75
2021/09/06 00:38:42;;;;;;;10.73;7.27;;;;;;;10.67;100.00;101689.63;4942722;28;20314;-76
2021/09/06 00:41:11;;;;;;;10.10;7.33;;;;;;;10.61;100.00;101690.63;4942909;28;20221;-74
2021/09/06 00:43:38;;;;;;;9.37;7.07;;;;;;;10.57;100.00;101684.03;4958534;28;20187;-75
2021/09/06 00:46:04;;;;;;;9.87;6.80;;;;;;;10.52;100.00;101686.66;4955529;28;20226;-75
2021/09/06 00:48:33;;;;;;;7.83;6.23;;;;;;;10.47;100.00;101683.84;4970782;28;20206;-75
2021/09/06 00:51:03;;;;;;;8.30;6.23;;;;;;;10.46;100.00;101687.66;4944901;28;20365;-76
2021/09/06 00:53:33;;;;;;;8.20;6.57;;;;;;;10.41;100.00;101690.28;4975246;28;20193;-75
2021/09/06 00:55:59;;;;;;;8.40;7.07;;;;;;;10.38;100.00;101689.94;4957505;28;20639;-75
2021/09/06 00:58:28;;;;;;;9.93;6.87;;;;;;;10.31;100.00;101683.03;4943678;28;20202;-76
2021/09/06 01:00:58;;;;;;;8.37;6.60;;;;;;;10.26;100.00;101685.69;4945565;28;20207;-75
2021/09/06 01:03:25;;;;;;;10.97;7.00;;;;;;;10.27;100.00;101695.44;4978814;28;20192;-75
2021/09/06 01:05:55;;;;;;;9.20;7.03;;;;;;;10.22;100.00;101695.34;4961735;28;20225;-75
2021/09/06 01:08:46;;;;;;;9.40;7.20;;;;;;;10.16;100.00;101682.75;4953619;28;20308;-75
2021/09/06 01:11:26;;;;;;;8.07;6.73;;;;;;;10.14;100.00;101687.63;4979005;28;20711;-75
2021/09/06 01:14:15;;;;;;;9.20;7.10;;;;;;;10.05;100.00;101680.94;4989240;28;20703;-75
2021/09/06 01:16:43;;;;;;;10.33;7.37;;;;;;;9.94;100.00;101683.72;4957849;28;20218;-74
2021/09/06 01:19:11;;;;;;;10.63;7.83;;;;;;;9.92;100.00;101683.94;4942897;28;20225;-76
2021/09/06 01:21:38;;;;;;;8.70;7.47;;;;;;;9.88;100.00;101688.19;4945279;28;20711;-77
2021/09/06 01:24:27;;;;;;;8.23;6.63;;;;;;;9.82;100.00;101686.44;4973438;28;20186;-75
2021/09/06 01:26:57;;;;;;;9.10;6.80;;;;;;;9.78;100.00;101688.00;4977725;28;20221;-74
2021/09/06 01:29:24;;;;;;;11.27;6.97;;;;;;;9.69;100.00;101689.44;4993659;28;20202;-75
2021/09/06 01:31:56;;;;;;;8.50;7.37;;;;;;;9.61;100.00;101691.69;4961643;28;20218;-74
2021/09/06 01:34:25;;;;;;;8.87;7.20;;;;;;;9.50;100.00;101694.44;4974911;28;20187;-75
2021/09/06 01:36:55;;;;;;;8.87;7.00;;;;;;;9.45;100.00;101697.03;4947349;28;20346;-74
2021/09/06 01:39:25;;;;;;;8.40;7.43;;;;;;;9.30;100.00;101681.31;4942081;28;20285;-75
2021/09/06 01:41:51;;;;;;;10.53;6.83;;;;;;;9.48;100.00;101678.41;4957795;28;20305;-75
2021/09/06 01:44:17;;;;;;;8.33;7.13;;;;;;;9.62;100.00;101682.50;4962022;28;20248;-75
2021/09/06 01:46:48;;;;;;;9.40;6.77;;;;;;;9.61;100.00;101688.97;4960980;28;20224;-76
2021/09/06 01:49:14;;;;;;;9.13;6.30;;;;;;;9.60;100.00;101682.75;4976708;28;20210;-76
2021/09/06 01:51:43;;;;;;;9.23;6.93;;;;;;;9.55;100.00;101683.72;4945102;28;20241;-75
2021/09/06 01:54:12;;;;;;;9.13;6.70;;;;;;;9.58;100.00;101678.63;4978008;28;20203;-75
2021/09/06 01:56:40;;;;;;;7.57;6.80;;;;;;;9.56;100.00;101671.78;4945605;28;20764;-76
2021/09/06 01:59:09;;;;;;;11.73;6.77;;;;;;;9.57;100.00;101683.22;4961788;28;20225;-75
2021/09/06 02:01:37;;;;;;;9.60;7.33;;;;;;;9.53;100.00;101681.25;4959924;28;20653;-76
2021/09/06 02:04:03;;;;;;;8.53;6.23;;;;;;;9.54;100.00;101676.63;4977350;28;20181;-76
2021/09/06 02:06:31;;;;;;;8.93;6.87;;;;;;;9.52;100.00;101670.63;4976783;28;20225;-75
2021/09/06 02:09:00;;;;;;;9.50;6.90;;;;;;;9.50;100.00;101667.34;4942182;28;20194;-76
2021/09/06 02:11:30;;;;;;;8.23;6.63;;;;;;;9.49;100.00;101671.94;4941901;28;20590;-75
2021/09/06 02:13:59;;;;;;;8.67;6.93;;;;;;;9.38;100.00;101667.38;4975434;28;20196;-76
2021/09/06 02:16:30;;;;;;;8.07;6.63;;;;;;;9.41;100.00;101674.19;4944647;28;20221;-76
2021/09/06 02:19:02;;;;;;;7.73;6.70;;;;;;;9.29;100.00;101679.66;4977107;28;20702;-74
2021/09/06 02:21:30;;;;;;;8.57;6.80;;;;;;;9.18;100.00;101674.25;4961632;28;20225;-76
2021/09/06 02:24:02;;;;;;;8.07;6.90;;;;;;;9.11;100.00;101689.81;4971704;28;20192;-75
2021/09/06 02:26:32;;;;;;;9.47;6.93;;;;;;;9.04;100.00;101691.81;4957603;28;20237;-75
2021/09/06 02:29:01;;;;;;;10.07;7.67;;;;;;;9.09;100.00;101691.94;4972900;28;20213;-75
2021/09/06 02:31:28;;;;;;;9.60;7.30;;;;;;;9.12;100.00;101680.63;4941468;28;20305;-75
2021/09/06 02:34:27;;;;;;;9.13;7.10;;;;;;;9.12;100.00;101685.19;4968599;28;20212;-75
2021/09/06 02:36:53;;;;;;;9.47;7.60;;;;;;;9.03;100.00;101687.47;4992065;28;20229;-76
2021/09/06 02:39:23;;;;;;;10.20;7.50;;;;;;;9.10;100.00;101693.59;4976582;28;20201;-76
2021/09/06 02:41:49;;;;;;;8.87;7.17;;;;;;;9.09;100.00;101691.94;4959762;28;20229;-76
2021/09/06 02:44:15;;;;;;;11.33;7.83;;;;;;;9.03;100.00;101690.19;4956903;28;20178;-75
2021/09/06 02:46:42;;;;;;;11.43;7.23;;;;;;;9.09;100.00;101689.22;4956469;28;20976;-75
2021/09/06 02:49:10;;;;;;;9.90;7.60;;;;;;;9.13;100.00;101686.88;4941348;28;20350;-76
2021/09/06 02:51:39;;;;;;;8.23;6.60;;;;;;;8.98;100.00;101683.81;4956291;28;20268;-75
2021/09/06 02:54:07;;;;;;;10.20;7.63;;;;;;;9.04;100.00;101689.09;4951548;28;20189;-75
2021/09/06 02:56:35;;;;;;;8.10;6.73;;;;;;;9.04;100.00;101686.41;4972360;28;20229;-76
2021/09/06 02:59:01;;;;;;;9.33;7.30;;;;;;;9.00;100.00;101682.50;4975779;28;20193;-75
2021/09/06 03:01:27;;;;;;;10.40;7.57;;;;;;;9.04;100.00;101678.25;4959510;28;20225;-76
2021/09/06 03:03:55;;;;;;;8.87;7.30;;;;;;;9.01;100.00;101686.88;4975861;28;20192;-75
2021/09/06 03:06:21;;;;;;;9.47;7.70;;;;;;;8.92;100.00;101685.59;4976550;28;20658;-77
2021/09/06 03:08:49;;;;;;;8.73;6.80;;;;;;;9.06;100.00;101692.41;4956213;28;20214;-75
2021/09/06 03:11:22;;;;;;;8.43;6.60;;;;;;;9.04;100.00;101696.41;4971884;28;20226;-76
2021/09/06 03:13:48;;;;;;;8.93;6.37;;;;;;;9.01;100.00;101677.91;4949415;28;20173;-76
2021/09/06 03:16:16;;;;;;;8.53;6.73;;;;;;;9.02;100.00;101691.22;4959285;28;20662;-76
2021/09/06 03:18:44;;;;;;;9.53;6.30;;;;;;;9.00;100.00;101690.66;4956918;28;20199;-75
2021/09/06 03:21:24;;;;;;;10.23;6.73;;;;;;;8.61;100.00;101692.44;4957424;28;20360;-75
2021/09/06 03:23:51;;;;;;;8.63;6.37;;;;;;;8.76;100.00;101692.78;4940326;28;20201;-76
2021/09/06 03:26:22;;;;;;;8.50;6.23;;;;;;;8.69;100.00;101694.78;4956074;28;20222;-73
2021/09/06 03:28:51;;;;;;;8.00;6.47;;;;;;;8.69;100.00;101700.19;4963267;28;20591;-73
2021/09/06 03:31:22;;;;;;;11.00;6.70;;;;;;;8.79;100.00;101695.00;4959504;28;20226;-75
2021/09/06 03:33:49;;;;;;;8.33;6.70;;;;;;;8.65;100.00;101699.00;4955626;28;20201;-72
2021/09/06 03:36:15;;;;;;;8.83;6.87;;;;;;;8.74;100.00;101692.19;4970170;28;20585;-72
2021/09/06 03:38:41;;;;;;;11.33;6.90;;;;;;;8.67;100.00;101689.59;4967886;28;20206;-72
2021/09/06 03:41:11;;;;;;;8.60;6.63;;;;;;;8.74;100.00;101694.91;4980491;28;20882;-73
2021/09/06 03:43:44;;;;;;;9.63;6.93;;;;;;;8.67;100.00;101686.88;4990958;28;20192;-75
2021/09/06 03:46:11;;;;;;;10.53;6.60;;;;;;;8.67;100.00;101694.19;4959068;28;20232;-74
2021/09/06 03:48:38;;;;;;;7.00;6.23;;;;;;;8.69;100.00;101684.75;4943340;28;20351;-75
2021/09/06 03:51:07;;;;;;;10.37;7.07;;;;;;;8.61;100.00;101687.00;4975231;28;20222;-74
2021/09/06 03:53:39;;;;;;;8.40;6.50;;;;;;;8.63;100.00;101684.88;4952624;28;20198;-74
2021/09/06 03:56:07;;;;;;;7.80;6.43;;;;;;;8.57;100.00;101699.34;4964063;28;20224;-74
2021/09/06 03:58:41;;;;;;;9.20;6.50;;;;;;;8.47;100.00;101691.78;4969372;28;20209;-74
2021/09/06 04:01:10;;;;;;;9.40;6.00;;;;;;;8.50;100.00;101690.53;4966768;28;20268;-75
2021/09/06 04:03:36;;;;;;;8.33;7.10;;;;;;;8.55;100.00;101690.63;4978755;28;20209;-75
2021/09/06 04:06:02;;;;;;;10.57;6.73;;;;;;;8.52;100.00;101683.00;4982321;28;20357;-75
2021/09/06 04:08:30;;;;;;;8.70;7.10;;;;;;;8.57;100.00;101685.81;4990328;28;20634;-75
2021/09/06 04:10:56;;;;;;;8.50;6.83;;;;;;;8.62;100.00;101683.22;4958095;28;20229;-75
2021/09/06 04:13:26;;;;;;;7.07;6.10;;;;;;;8.47;100.00;101685.56;4957057;28;20185;-75
2021/09/06 04:15:55;;;;;;;8.67;6.40;;;;;;;8.48;100.00;101687.22;4999802;28;20295;-76
2021/09/06 04:18:23;;;;;;;7.73;6.47;;;;;;;8.48;100.00;101687.22;4985193;28;20184;-74
2021/09/06 04:20:49;;;;;;;9.77;6.80;;;;;;;8.54;100.00;101691.69;4960881;28;20730;-75
2021/09/06 04:23:15;;;;;;;8.87;6.50;;;;;;;8.50;100.00;101690.53;4958527;28;20209;-75
2021/09/06 04:25:43;;;;;;;9.33;6.13;;;;;;;8.55;100.00;101699.59;4954619;28;20235;-75
2021/09/06 04:28:09;;;;;;;7.93;6.40;;;;;;;8.48;100.00;101696.16;4954745;28;20660;-75
2021/09/06 04:30:37;;;;;;;7.73;6.63;;;;;;;8.52;100.00;101691.13;4967340;28;20213;-75
2021/09/06 04:33:05;;;;;;;8.30;6.63;;;;;;;8.39;100.00;101688.63;4958707;28;20189;-74
2021/09/06 04:35:33;;;;;;;7.00;6.07;;;;;;;8.44;100.00;101683.31;4965417;28;20221;-73
2021/09/06 04:37:59;;;;;;;8.60;6.43;;;;;;;8.49;100.00;101688.84;4961146;28;20194;-73
2021/09/06 04:40:28;;;;;;;8.00;6.07;;;;;;;8.47;100.00;101688.28;4964226;28;20248;-74
2021/09/06 04:42:56;;;;;;;8.13;6.47;;;;;;;8.44;100.00;101691.44;4964147;28;20983;-73
2021/09/06 04:45:24;;;;;;;8.20;6.53;;;;;;;8.35;100.00;101690.16;4969124;28;20192;-73
2021/09/06 04:47:50;;;;;;;8.37;6.40;;;;;;;8.31;100.00;101691.66;4962182;28;20215;-73
2021/09/06 04:50:18;;;;;;;7.87;5.57;;;;;;;8.33;100.00;101694.94;4985698;28;20228;-74
2021/09/06 04:52:44;;;;;;;6.97;6.10;;;;;;;8.34;100.00;101706.63;4942539;28;20205;-74
2021/09/06 04:55:12;;;;;;;7.10;6.00;;;;;;;8.36;100.00;101705.31;4939153;28;20682;-74
2021/09/06 04:57:45;;;;;;;7.57;6.20;;;;;;;8.37;100.00;101704.28;4940045;28;20187;-74
2021/09/06 05:00:13;;;;;;;6.80;5.90;;;;;;;8.41;100.00;101694.63;4944776;28;20205;-73
2021/09/06 05:02:42;;;;;;;8.93;6.00;;;;;;;8.47;100.00;101696.41;4989640;28;20207;-74
2021/09/06 05:05:09;;;;;;;10.23;6.73;;;;;;;8.53;100.00;101700.88;4991389;28;20332;-73
2021/09/06 05:07:41;;;;;;;8.10;5.90;;;;;;;8.52;100.00;101705.47;5000294;28;20272;-74
2021/09/06 05:10:08;;;;;;;7.17;5.70;;;;;;;8.55;100.00;101704.16;4989805;28;20212;-74
2021/09/06 05:12:39;;;;;;;8.00;5.80;;;;;;;8.50;100.00;101704.06;4975080;28;20205;-74
2021/09/06 05:15:05;;;;;;;7.50;5.77;;;;;;;8.52;100.00;101704.66;4990325;28;20260;-74
2021/09/06 05:17:32;;;;;;;7.60;6.20;;;;;;;8.48;100.00;101703.47;4982940;28;20221;-73
2021/09/06 05:19:57;;;;;;;7.23;5.70;;;;;;;8.46;100.00;101705.56;4998302;28;20726;-74
2021/09/06 05:22:25;;;;;;;8.73;6.00;;;;;;;8.66;100.00;101708.78;4946398;28;20299;-74
2021/09/06 05:24:55;;;;;;;8.57;6.30;;;;;;;8.70;100.00;101713.50;4968977;28;20670;-74
2021/09/06 05:27:25;;;;;;;6.60;5.43;;;;;;;8.76;100.00;101709.84;4973288;28;20222;-74
2021/09/06 05:29:51;;;;;;;6.67;5.87;;;;;;;8.98;100.00;101722.56;4957512;28;20230;-72
2021/09/06 05:32:19;;;;;;;7.77;5.37;;;;;;;9.06;100.00;101724.09;4979870;28;20617;-73
2021/09/06 05:34:53;;;;;;;7.70;5.57;;;;;;;9.10;100.00;101719.84;4974786;28;20276;-73
2021/09/06 05:37:22;;;;;;;6.00;5.27;;;;;;;9.34;100.00;101719.59;4992922;28;20224;-72
2021/09/06 05:39:47;;;;;;;6.30;5.30;;;;;;;9.46;100.00;101714.97;4991022;28;20197;-72
2021/09/06 05:42:15;;;;;;;8.17;5.87;;;;;;;9.43;100.00;101715.44;5000348;28;20222;-74
2021/09/06 05:44:41;;;;;;;6.00;5.07;;;;;;;9.56;100.00;101726.03;4969682;28;20217;-76
2021/09/06 05:47:11;;;;;;;6.77;5.23;;;;;;;9.61;100.00;101724.25;4966138;28;20715;-75
2021/09/06 05:49:42;;;;;;;6.47;5.47;;;;;;;9.62;100.00;101713.16;4976521;28;20616;-75
2021/09/06 05:52:08;;;;;;;6.33;5.40;;;;;;;9.63;100.00;101717.53;4985898;28;20224;-74
2021/09/06 05:54:40;;;;;;;8.37;5.83;;;;;;;9.78;100.00;101715.13;4943975;28;20196;-74
2021/09/06 05:57:10;;;;;;;6.77;5.73;;;;;;;9.79;100.00;101719.47;4971196;28;20730;-75
2021/09/06 05:59:36;;;;;;;7.80;5.37;;;;;;;9.94;100.00;101733.38;4939393;28;20203;-75
2021/09/06 06:02:07;;;;;;;7.87;5.73;;;;;;;10.05;100.00;101729.78;4968752;28;20267;-75
2021/09/06 06:04:38;;;;;;;8.33;5.83;;;;;;;10.15;100.00;101727.28;4977072;28;20182;-75
2021/09/06 06:07:04;;;;;;;7.77;5.43;;;;;;;10.31;100.00;101735.47;4941478;28;20222;-75
2021/09/06 06:09:32;;;;;;;7.00;5.47;;;;;;;10.37;100.00;101732.59;4973316;28;20684;-74
2021/09/06 06:11:59;;;;;;;6.63;5.80;;;;;;;10.52;100.00;101735.56;4941364;28;20229;-73
2021/09/06 06:14:25;;;;;;;7.50;5.73;;;;;;;10.63;100.00;101726.53;4974961;28;20560;-76
2021/09/06 06:16:54;;;;;;;7.50;5.73;;;;;;;10.71;100.00;101734.25;4941167;28;20249;-73
2021/09/06 06:19:21;;;;;;;7.43;5.60;;;;;;;10.93;100.00;101737.88;4942118;28;20202;-77
2021/09/06 06:22:06;;;;;;;6.40;5.77;;;;;;;11.11;100.00;101735.72;4959818;28;20310;-73
2021/09/06 06:25:07;;;;;;;7.83;5.67;;;;;;;11.21;100.00;101736.69;4903585;29;20208;-74
2021/09/06 06:27:39;;;;;;;8.70;6.10;;;;;;;11.39;100.00;101739.16;4943476;28;20679;-76
2021/09/06 06:30:09;;;;;;;7.63;5.60;;;;;;;11.62;100.00;101739.75;4925749;28;20214;-75
2021/09/06 06:32:35;;;;;;;8.13;6.07;;;;;;;11.80;100.00;101735.91;4970141;28;20193;-75
2021/09/06 06:35:10;;;;;;;6.57;5.87;;;;;;;11.88;100.00;101732.72;4963179;28;20188;-74
2021/09/06 06:37:36;;;;;;;7.03;5.60;;;;;;;12.07;100.00;101732.16;4960226;28;20181;-74
2021/09/06 06:40:05;;;;;;;6.80;6.10;;;;;;;12.15;100.00;101728.97;4992205;28;20202;-74
2021/09/06 06:42:38;;;;;;;8.43;6.20;;;;;;;12.39;100.00;101725.66;4981641;28;20183;-74
2021/09/06 06:45:12;;;;;;;7.03;6.33;;;;;;;12.39;100.00;101737.38;4957246;28;20186;-75
2021/09/06 06:47:38;;;;;;;8.10;5.70;;;;;;;12.69;100.00;101727.59;4940575;28;20707;-75
2021/09/06 06:50:05;;;;;;;8.80;6.43;;;;;;;12.80;100.00;101734.81;4971823;28;20195;-74
2021/09/06 06:52:35;;;;;;;7.60;6.50;;;;;;;12.98;100.00;101739.84;4970940;28;20217;-75
2021/09/06 06:55:01;;;;;;;9.63;7.50;;;;;;;13.03;100.00;101739.06;4972895;28;20186;-76
2021/09/06 06:57:29;;;;;;;10.47;7.77;;;;;;;13.35;100.00;101740.63;4977625;28;20268;-74
2021/09/06 06:59:54;;;;;;;10.00;6.73;;;;;;;13.49;100.00;101740.72;4956976;28;20225;-74
2021/09/06 07:02:21;;;;;;;10.10;7.60;;;;;;;13.72;100.00;101739.50;4975872;28;20272;-74
2021/09/06 07:04:47;;;;;;;12.37;8.77;;;;;;;13.86;100.00;101730.50;4975990;28;20188;-75
2021/09/06 07:07:15;;;;;;;12.47;8.40;;;;;;;14.05;100.00;101737.19;4976097;28;20631;-74
2021/09/06 07:09:43;;;;;;;11.10;8.67;;;;;;;14.31;100.00;101735.06;4975902;28;20864;-75
2021/09/06 07:12:11;;;;;;;10.67;8.37;;;;;;;14.38;100.00;101734.81;4956140;28;20297;-73
2021/09/06 07:14:40;;;;;;;11.67;9.10;;;;;;;14.54;100.00;101740.03;4941342;28;20189;-74
2021/09/06 07:17:08;;;;;;;11.50;8.57;;;;;;;14.63;100.00;101735.66;4982567;28;20238;-72
2021/09/06 07:19:34;;;;;;;12.10;9.30;;;;;;;14.64;100.00;101732.66;4985822;28;20214;-74
2021/09/06 07:22:03;;;;;;;10.77;8.93;;;;;;;14.86;100.00;101733.22;4956291;28;20712;-73
2021/09/06 07:24:39;;;;;;;12.20;9.17;;;;;;;14.88;100.00;101732.94;4979926;28;20200;-74
2021/09/06 07:27:04;;;;;;;12.20;9.13;;;;;;;15.03;100.00;101740.03;4976160;28;20308;-75
2021/09/06 07:29:30;;;;;;;11.60;9.43;;;;;;;15.19;100.00;101738.97;4992185;28;20203;-75
2021/09/06 07:32:00;;;;;;;11.83;9.77;;;;;;;15.39;100.00;101732.63;4975879;28;20896;-74
2021/09/06 07:34:34;;;;;;;14.10;9.88;;;;;;;15.48;100.00;101737.25;4941010;28;20186;-74
2021/09/06 07:37:09;;;;;;;12.60;10.23;;;;;;;15.71;100.00;101728.41;4956929;28;20287;-74
2021/09/06 07:39:40;;;;;;;15.17;10.07;;;;;;;15.85;100.00;101733.84;4941106;28;20202;-74
2021/09/06 07:42:06;;;;;;;14.93;11.27;;;;;;;15.82;100.00;101728.94;4955578;28;20273;-74
2021/09/06 07:44:32;;;;;;;14.00;10.68;;;;;;;16.14;100.00;101725.78;4991280;28;20182;-73
2021/09/06 07:47:01;;;;;;;13.68;10.93;;;;;;;16.17;100.00;101736.97;4974949;28;20229;-74
2021/09/06 07:49:26;;;;;;;12.68;10.20;;;;;;;16.32;100.00;101734.19;4973804;28;20223;-74
2021/09/06 07:51:52;;;;;;;13.20;10.40;;;;;;;16.54;100.00;101732.66;4974338;28;20703;-74
2021/09/06 07:54:27;;;;;;;12.75;10.00;;;;;;;16.37;100.00;101736.88;4975231;28;20192;-74
2021/09/06 07:56:54;;;;;;;14.20;10.60;;;;;;;16.80;100.00;101753.34;4990748;28;20598;-75
2021/09/06 07:59:23;;;;;;;11.25;10.05;;;;;;;17.08;100.00;101745.13;4954503;28;20206;-75
2021/09/06 08:01:48;;;;;;;13.95;10.32;;;;;;;17.26;100.00;101749.94;4971404;28;20720;-74
2021/09/06 08:04:16;;;;;;;13.55;10.25;;;;;;;17.19;100.00;101744.75;4939725;28;20581;-73
2021/09/06 08:06:45;;;;;;;12.50;9.85;;;;;;;17.23;100.00;101745.00;4939785;28;20226;-74
2021/09/06 08:09:13;;;;;;;13.68;9.85;;;;;;;17.29;100.00;101746.59;4939830;28;20712;-74
2021/09/06 08:11:45;;;;;;;13.30;9.60;;;;;;;17.45;100.00;101752.47;4970897;28;20233;-74
2021/09/06 08:14:14;;;;;;;12.13;9.73;;;;;;;17.55;100.00;101755.13;4974365;28;20182;-74
2021/09/06 08:16:40;;;;;;;13.07;9.88;;;;;;;17.54;100.00;101750.72;4954559;28;20218;-74
2021/09/06 08:19:08;;;;;;;12.57;10.05;;;;;;;17.84;100.00;101755.88;4947778;28;20205;-74
2021/09/06 08:21:34;;;;;;;13.50;9.55;;;;;;;18.03;100.00;101759.50;4970821;28;20298;-75
2021/09/06 08:24:00;;;;;;;12.73;9.70;;;;;;;18.21;100.00;101756.81;4945712;28;20648;-74
2021/09/06 08:26:28;;;;;;;11.45;9.18;;;;;;;18.26;100.00;101754.81;4939591;28;20598;-76
2021/09/06 08:28:58;;;;;;;12.43;10.30;;;;;;;18.17;100.00;101751.06;4975013;28;20639;-74
2021/09/06 08:31:25;;;;;;;12.75;9.88;;;;;;;18.23;100.00;101749.88;4974074;28;20230;-74
2021/09/06 08:33:52;;;;;;;11.50;9.88;;;;;;;18.74;100.00;101757.13;4974948;28;20186;-74
2021/09/06 08:36:18;;;;;;;14.40;10.63;;;;;;;18.75;100.00;101755.16;4957637;28;20571;-74
2021/09/06 08:38:46;;;;;;;12.50;9.70;;;;;;;19.26;100.00;101763.16;4974276;28;20197;-75
2021/09/06 08:41:12;;;;;;;13.10;11.05;;;;;;;19.09;100.00;101753.81;4974309;28;20687;-74
2021/09/06 08:43:40;;;;;;;12.93;9.68;;;;;;;19.67;100.00;101762.91;4959173;28;20181;-75
2021/09/06 08:46:14;;;;;;;12.50;10.00;;;;;;;19.74;100.00;101768.00;4975151;28;20220;-74
2021/09/06 08:48:43;;;;;;;13.35;10.00;;;;;;;19.79;100.00;101771.50;4991296;28;20232;-75
2021/09/06 08:51:12;;;;;;;13.60;10.90;;;;;;;19.86;100.00;101765.63;4958666;28;20244;-76
2021/09/06 08:53:40;;;;;;;11.82;10.40;;;;;;;19.75;100.00;101770.47;4974744;28;20181;-76
2021/09/06 08:56:08;;;;;;;13.00;10.35;;;;;;;19.91;100.00;101773.81;4973810;28;20570;-76
2021/09/06 08:58:36;;;;;;;12.70;10.43;;;;;;;20.13;99.25;101766.44;4990340;28;20198;-78
2021/09/06 09:01:02;;;;;;;14.05;10.25;;;;;;;20.11;98.67;101772.25;4973918;28;20217;-74
2021/09/06 09:03:50;;;;;;;12.43;10.68;;;;;;;20.30;95.03;101772.13;4982667;28;20281;-76
2021/09/06 09:06:37;;;;;;;11.40;9.68;;;;;;;20.02;85.44;101776.03;4992839;28;20226;-76
2021/09/06 09:09:37;;;;;;;11.23;9.32;;;;;;;20.04;83.78;101776.56;4990348;28;20279;-75
2021/09/06 09:12:34;;;;;;;11.50;8.80;;;;;;;20.36;83.19;101759.84;4994474;28;20225;-77
2021/09/06 09:15:07;;;;;;;11.05;9.80;;;;;;;20.15;90.37;101764.19;4965593;28;20185;-78
2021/09/06 09:17:52;;;;;;;11.43;10.18;;;;;;;20.18;89.04;101769.91;4995658;28;20625;-74
2021/09/06 09:20:42;;;;;;;11.95;10.60;;;;;;;20.10;87.86;101783.59;4969647;28;20222;-74
2021/09/06 09:23:48;;;;;;;12.35;9.75;;;;;;;20.42;86.07;101775.16;4953007;28;20198;-76
2021/09/06 09:26:59;;;;;;;11.57;10.25;;;;;;;20.49;82.62;101777.22;4912541;29;20238;-75
2021/09/06 09:29:52;;;;;;;12.55;10.38;;;;;;;20.06;87.91;101788.91;4981100;28;20256;-74
2021/09/06 09:32:24;;;;;;;13.63;10.63;;;;;;;20.08;88.08;101785.84;4980427;28;20239;-74
2021/09/06 09:35:05;;;;;;;13.68;10.25;;;;;;;20.38;83.61;101779.66;4969740;28;20189;-74
2021/09/06 09:37:38;;;;;;;11.73;10.38;;;;;;;20.57;82.28;101781.19;4978852;28;20205;-75
2021/09/06 09:40:07;;;;;;;12.00;10.00;;;;;;;20.87;80.66;101775.78;4977347;28;20202;-75
2021/09/06 09:42:43;;;;;;;11.05;9.95;;;;;;;20.73;77.52;101777.78;4962105;28;20561;-75
2021/09/06 09:45:11;;;;;;;13.40;10.40;;;;;;;20.62;76.62;101773.63;4994083;28;20228;-80
2021/09/06 09:47:58;;;;;;;13.73;10.73;;;;;;;20.28;76.02;101775.19;4996624;28;20193;-78
2021/09/06 09:50:28;;;;;;;12.20;10.90;;;;;;;20.21;79.66;101774.78;4972814;28;20345;-78
2021/09/06 09:52:58;;;;;;;13.00;10.30;;;;;;;20.61;80.00;101774.72;4963976;28;20210;-78
2021/09/06 09:55:31;;;;;;;15.13;11.60;;;;;;;20.30;79.44;101769.38;4986252;28;20232;-79
2021/09/06 09:57:58;;;;;;;13.48;10.65;;;;;;;20.54;83.51;101766.03;4979229;28;20714;-79
2021/09/06 10:00:24;;;;;;;12.25;10.90;;;;;;;20.86;83.37;101758.41;4994812;28;20228;-77
2021/09/06 10:02:56;;;;;;;13.35;11.20;;;;;;;20.70;83.26;101767.34;4961630;28;20236;-77
2021/09/06 10:05:28;;;;;;;12.50;11.00;;;;;;;20.77;81.57;101759.47;4973768;28;20263;-75
2021/09/06 10:07:56;;;;;;;12.75;10.80;;;;;;;21.19;78.19;101765.31;4957919;28;20189;-76
2021/09/06 10:10:23;;;;;;;13.43;11.45;;;;;;;21.22;77.64;101759.13;4964032;28;21374;-77
2021/09/06 10:13:00;;;;;;;12.95;11.30;;;;;;;21.19;79.16;101754.25;4962761;28;20754;-78
2021/09/06 10:15:28;;;;;;;11.43;10.10;;;;;;;21.22;80.53;101748.06;4978490;28;20323;-76
2021/09/06 10:17:57;;;;;;;11.43;9.57;;;;;;;21.39;76.17;101754.53;4961758;28;20189;-76
2021/09/06 10:20:26;;;;;;;10.68;9.27;;;;;;;21.32;77.68;101753.34;4958345;28;20279;-77
2021/09/06 10:23:12;;;;;;;12.35;10.70;;;;;;;21.41;74.44;101748.69;4942668;28;20714;-76
2021/09/06 10:25:38;;;;;;;11.73;10.45;;;;;;;21.38;77.88;101749.31;4958255;28;20222;-76
2021/09/06 10:28:07;;;;;;;13.93;10.00;;;;;;;21.31;77.51;101741.47;4960020;28;20221;-78
2021/09/06 10:30:38;;;;;;;10.88;9.25;;;;;;;21.66;75.12;101743.31;4964228;28;20272;-78
2021/09/06 10:33:07;;;;;;;11.90;10.10;;;;;;;21.92;68.57;101742.25;4962551;28;20201;-76
2021/09/06 10:35:34;;;;;;;10.73;9.55;;;;;;;21.89;68.64;101742.91;4973455;28;20272;-77
2021/09/06 10:38:07;;;;;;;11.55;10.20;;;;;;;22.26;70.94;101737.66;4958133;28;20593;-77
2021/09/06 10:40:37;;;;;;;11.60;10.00;;;;;;;22.56;69.41;101731.19;4980927;28;20244;-77
2021/09/06 10:43:18;;;;;;;12.60;10.02;;;;;;;22.69;70.01;101730.19;4981228;28;20178;-77
2021/09/06 10:45:47;;;;;;;9.63;8.63;;;;;;;23.05;66.60;101737.06;4981663;28;20615;-77
2021/09/06 10:48:24;;;;;;;12.40;9.00;;;;;;;22.58;61.50;101734.44;4979485;28;20200;-77
2021/09/06 10:50:50;;;;;;;10.77;8.27;;;;;;;22.78;62.39;101732.66;4979051;28;20702;-75
2021/09/06 10:53:21;;;;;;;11.63;9.00;;;;;;;22.82;64.65;101732.84;4979054;28;20224;-76
2021/09/06 10:55:51;;;;;;;13.15;10.27;;;;;;;22.67;64.15;101736.06;4941548;28;20556;-75
2021/09/06 10:58:20;;;;;;;10.18;9.05;;;;;;;23.47;60.60;101732.22;4957686;28;20174;-75
2021/09/06 11:00:57;;;;;;;9.90;7.63;;;;;;;23.50;54.62;101734.34;4947520;28;20309;-76
2021/09/06 11:03:25;;;;;;;9.93;7.80;;;;;;;23.16;59.07;101730.84;4976787;28;20267;-76
2021/09/06 11:06:00;;;;;;;11.75;8.57;;;;;;;23.33;58.62;101725.25;4976201;28;20594;-76
2021/09/06 11:08:33;;;;;;;11.70;8.65;;;;;;;23.25;59.84;101729.69;4991519;28;20190;-77
2021/09/06 11:11:07;;;;;;;9.63;8.45;;;;;;;23.14;59.15;101727.59;4976466;28;20345;-75
2021/09/06 11:13:47;;;;;;;9.13;8.10;;;;;;;23.18;56.06;101720.22;4960552;28;20204;-75
2021/09/06 11:16:19;;;;;;;8.77;7.88;;;;;;;22.96;59.88;101725.97;4992141;28;20204;-76
2021/09/06 11:18:48;;;;;;;8.40;7.60;;;;;;;23.15;58.72;101729.22;4992618;28;20205;-77
2021/09/06 11:21:14;;;;;;;9.50;8.48;;;;;;;23.52;55.32;101725.69;4960246;28;20202;-77
2021/09/06 11:23:46;;;;;;;8.63;7.75;;;;;;;23.10;57.03;101728.59;4962307;28;20819;-78
2021/09/06 11:26:28;;;;;;;8.88;7.97;;;;;;;23.20;54.91;101731.81;4994194;28;20223;-79
2021/09/06 11:28:56;;;;;;;11.63;7.93;;;;;;;22.34;61.21;101728.53;4976753;28;20690;-75
2021/09/06 11:31:24;;;;;;;10.68;8.77;;;;;;;22.28;63.71;101729.84;4961041;28;20233;-78